Time;durP1;ratioP1;P1;durP2;ratioP2;P2;SDS_P1;SDS_P2;PMS_P1;PMS_P2;Temp;Humidity;BMP_temperature;BMP_pressure;BME280_temperature;BME280_humidity;BME280_pressure;Samples;Min_cycle;Max_cycle;Signal;HPM_P1;HPM_P2
2023/08/04 00:00:30;;;;;;;1.90;1.10;;;;;;;15.92;100.00;99856.53;4983784;28;20208;-71
2023/08/04 00:02:57;;;;;;;1.57;1.10;;;;;;;15.96;100.00;99857.34;4986210;28;20232;-71
2023/08/04 00:05:24;;;;;;;2.33;1.23;;;;;;;15.92;100.00;99852.97;4987493;28;20202;-71
2023/08/04 00:07:50;;;;;;;1.43;1.33;;;;;;;15.98;100.00;99859.09;4984295;28;20228;-71
2023/08/04 00:10:16;;;;;;;1.63;1.03;;;;;;;15.97;100.00;99864.47;4983975;28;20205;-71
2023/08/04 00:12:43;;;;;;;3.47;1.77;;;;;;;15.95;100.00;99855.59;4983799;28;20224;-71
2023/08/04 00:15:10;;;;;;;1.73;1.33;;;;;;;15.97;100.00;99861.78;4984594;28;20200;-71
2023/08/04 00:17:38;;;;;;;1.50;1.20;;;;;;;15.99;100.00;99862.66;4988527;28;20201;-70
2023/08/04 00:20:08;;;;;;;1.60;1.30;;;;;;;15.98;100.00;99866.22;4988284;28;20217;-71
2023/08/04 00:22:35;;;;;;;1.43;1.20;;;;;;;16.01;100.00;99868.88;4970681;28;20225;-71
2023/08/04 00:25:02;;;;;;;3.83;1.30;;;;;;;15.99;100.00;99865.31;4970608;28;20207;-71
2023/08/04 00:27:28;;;;;;;1.03;0.90;;;;;;;16.07;100.00;99871.44;4988003;28;20628;-71
2023/08/04 00:29:55;;;;;;;2.10;1.07;;;;;;;16.09;100.00;99872.28;4986655;28;20204;-71
2023/08/04 00:32:21;;;;;;;2.50;1.13;;;;;;;16.07;100.00;99866.09;4987050;28;20292;-71
2023/08/04 00:34:48;;;;;;;2.00;1.07;;;;;;;16.13;100.00;99876.66;4983520;28;20691;-71
2023/08/04 00:37:14;;;;;;;1.83;1.00;;;;;;;16.16;100.00;99867.72;4985630;28;20248;-71
2023/08/04 00:39:41;;;;;;;2.47;1.23;;;;;;;16.19;100.00;99881.91;4984926;28;20212;-71
2023/08/04 00:42:07;;;;;;;2.60;1.10;;;;;;;16.24;100.00;99872.00;4980326;28;20293;-71
2023/08/04 00:44:33;;;;;;;3.07;1.20;;;;;;;16.28;100.00;99872.81;4986048;28;20232;-71
2023/08/04 00:47:00;;;;;;;1.20;1.10;;;;;;;16.27;100.00;99873.75;4989057;28;20288;-72
2023/08/04 00:49:26;;;;;;;1.50;1.10;;;;;;;16.26;100.00;99867.50;4983523;28;20204;-71
2023/08/04 00:51:53;;;;;;;1.27;1.10;;;;;;;16.28;100.00;99872.81;4985452;28;20658;-71
2023/08/04 00:54:21;;;;;;;2.90;1.33;;;;;;;16.17;100.00;99869.47;4987133;28;20231;-71
2023/08/04 00:56:49;;;;;;;1.70;1.10;;;;;;;16.14;100.00;99873.09;4987568;28;20312;-71
2023/08/04 00:59:15;;;;;;;2.87;1.33;;;;;;;16.16;100.00;99871.28;4986453;28;20642;-72
2023/08/04 01:01:41;;;;;;;1.60;1.40;;;;;;;16.18;100.00;99874.78;4979609;28;20255;-70
2023/08/04 01:04:08;;;;;;;2.20;1.40;;;;;;;16.20;100.00;99878.31;4983973;28;20866;-71
2023/08/04 01:06:49;;;;;;;1.47;1.37;;;;;;;16.18;100.00;99873.91;4986842;28;20212;-71
2023/08/04 01:09:48;;;;;;;2.00;1.53;;;;;;;16.21;100.00;99871.19;4985567;28;20208;-71
2023/08/04 01:12:17;;;;;;;1.80;1.50;;;;;;;16.20;100.00;99882.78;4980473;28;20205;-71
2023/08/04 01:14:48;;;;;;;3.43;1.70;;;;;;;16.20;100.00;99877.44;4982530;28;20205;-70
2023/08/04 01:17:31;;;;;;;3.73;1.70;;;;;;;16.09;100.00;99879.41;4982551;28;20227;-70
2023/08/04 01:19:58;;;;;;;1.77;1.50;;;;;;;16.07;100.00;99890.13;4985749;28;20845;-71
2023/08/04 01:22:25;;;;;;;4.30;1.80;;;;;;;16.01;100.00;99879.56;4969064;28;20197;-71
2023/08/04 01:24:53;;;;;;;2.73;1.50;;;;;;;16.02;100.00;99878.66;4984629;28;20205;-71
2023/08/04 01:27:26;;;;;;;3.23;1.60;;;;;;;16.01;100.00;99875.97;4983040;28;20231;-71
2023/08/04 01:29:55;;;;;;;4.73;1.60;;;;;;;16.05;100.00;99886.59;4987864;28;20284;-72
2023/08/04 01:32:22;;;;;;;2.27;1.60;;;;;;;16.08;100.00;99885.66;4976566;28;20283;-71
2023/08/04 01:34:49;;;;;;;2.70;1.70;;;;;;;16.06;100.00;99884.81;4983054;28;20216;-72
2023/08/04 01:37:15;;;;;;;3.93;1.57;;;;;;;16.06;100.00;99887.50;4986234;28;20223;-71
2023/08/04 01:39:42;;;;;;;3.00;1.50;;;;;;;16.08;100.00;99888.34;4977559;28;20587;-72
2023/08/04 01:42:09;;;;;;;4.63;1.90;;;;;;;15.97;100.00;99883.16;4980419;28;20292;-71
2023/08/04 01:44:35;;;;;;;2.37;1.70;;;;;;;15.98;100.00;99885.81;4984876;28;20225;-71
2023/08/04 01:47:03;;;;;;;3.50;1.70;;;;;;;15.92;100.00;99882.34;4981395;28;20200;-71
2023/08/04 01:49:29;;;;;;;3.80;1.40;;;;;;;15.91;100.00;99886.81;4980037;28;20196;-71
2023/08/04 01:51:55;;;;;;;1.87;1.63;;;;;;;15.90;100.00;99879.72;4985041;28;20212;-72
2023/08/04 01:54:22;;;;;;;2.27;1.60;;;;;;;15.84;100.00;99878.94;4979866;28;20255;-71
2023/08/04 01:56:48;;;;;;;2.10;1.60;;;;;;;15.86;100.00;99888.69;4979112;28;20229;-71
2023/08/04 01:59:15;;;;;;;3.23;1.70;;;;;;;15.87;100.00;99892.22;4965006;28;20209;-71
2023/08/04 02:01:41;;;;;;;2.07;1.40;;;;;;;15.84;100.00;99884.28;4980730;28;20208;-71
2023/08/04 02:04:07;;;;;;;2.40;1.50;;;;;;;15.86;100.00;99885.13;4981005;28;20716;-71
2023/08/04 02:06:34;;;;;;;2.00;1.50;;;;;;;15.89;100.00;99887.75;4985694;28;20203;-72
2023/08/04 02:09:00;;;;;;;4.23;1.53;;;;;;;15.94;100.00;99894.78;4985504;28;20388;-71
2023/08/04 02:11:27;;;;;;;2.37;1.80;;;;;;;15.98;100.00;99899.16;4978682;28;20196;-71
2023/08/04 02:13:53;;;;;;;3.43;1.40;;;;;;;15.94;100.00;99893.91;4990793;28;20311;-71
2023/08/04 02:16:19;;;;;;;1.87;1.40;;;;;;;15.90;100.00;99894.84;4984053;28;20290;-69
2023/08/04 02:18:46;;;;;;;3.90;1.60;;;;;;;15.91;100.00;99899.28;4987920;28;20298;-71
2023/08/04 02:21:12;;;;;;;2.33;1.60;;;;;;;16.00;100.00;99896.47;4990702;28;20211;-71
2023/08/04 02:23:39;;;;;;;3.77;1.50;;;;;;;15.97;100.00;99899.19;4984325;28;20229;-71
2023/08/04 02:26:05;;;;;;;1.97;1.50;;;;;;;16.08;100.00;99897.25;4990725;28;20680;-70
2023/08/04 02:28:31;;;;;;;2.33;1.60;;;;;;;16.01;100.00;99898.25;4990027;28;20211;-71
2023/08/04 02:31:01;;;;;;;2.80;1.77;;;;;;;16.02;100.00;99900.00;4987838;28;20232;-71
2023/08/04 02:33:28;;;;;;;3.10;1.87;;;;;;;16.08;100.00;99907.91;4987302;28;20256;-71
2023/08/04 02:36:03;;;;;;;3.43;2.53;;;;;;;15.99;100.00;99892.91;4990350;28;20213;-71
2023/08/04 02:38:29;;;;;;;2.47;1.70;;;;;;;16.01;100.00;99906.25;4988387;28;20210;-71
2023/08/04 02:41:03;;;;;;;4.17;2.07;;;;;;;15.89;100.00;99893.97;4992005;28;20216;-72
2023/08/04 02:43:30;;;;;;;5.80;2.17;;;;;;;15.89;100.00;99910.00;4989220;28;20223;-71
2023/08/04 02:45:57;;;;;;;3.37;2.30;;;;;;;15.84;100.00;99908.31;4988115;28;20203;-72
2023/08/04 02:48:23;;;;;;;3.63;2.30;;;;;;;15.86;100.00;99914.50;4989965;28;20223;-71
2023/08/04 02:51:10;;;;;;;4.07;2.30;;;;;;;15.85;100.00;99924.31;4988935;28;20228;-71
2023/08/04 02:53:40;;;;;;;3.17;2.27;;;;;;;15.78;100.00;99908.41;4983394;28;20229;-72
2023/08/04 02:56:12;;;;;;;4.43;2.50;;;;;;;15.78;100.00;99916.41;4986852;28;20431;-71
2023/08/04 02:58:39;;;;;;;4.10;2.50;;;;;;;15.74;100.00;99912.91;4970680;28;20235;-70
2023/08/04 03:01:05;;;;;;;3.67;2.40;;;;;;;15.70;100.00;99915.66;4992574;28;20569;-71
2023/08/04 03:03:32;;;;;;;4.97;2.50;;;;;;;15.69;100.00;99920.13;4986846;28;20316;-71
2023/08/04 03:05:59;;;;;;;5.53;2.60;;;;;;;15.64;100.00;99911.28;4987595;28;20299;-71
2023/08/04 03:08:26;;;;;;;5.77;2.63;;;;;;;15.62;100.00;99921.13;4989289;28;20205;-72
2023/08/04 03:10:54;;;;;;;4.43;2.40;;;;;;;15.55;100.00;99917.59;4981133;28;20288;-71
2023/08/04 03:13:21;;;;;;;2.37;2.13;;;;;;;15.49;100.00;99911.47;4966977;28;20220;-69
2023/08/04 03:15:54;;;;;;;5.43;2.70;;;;;;;15.46;100.00;99919.50;4991742;28;20205;-71
2023/08/04 03:18:21;;;;;;;4.27;2.30;;;;;;;15.45;100.00;99920.41;4972594;28;20695;-69
2023/08/04 03:20:47;;;;;;;3.47;2.33;;;;;;;15.45;100.00;99923.09;4990275;28;20582;-70
2023/08/04 03:23:13;;;;;;;4.90;2.60;;;;;;;15.48;100.00;99926.59;4968086;28;20217;-71
2023/08/04 03:25:40;;;;;;;5.43;2.30;;;;;;;15.46;100.00;99933.75;4981356;28;20216;-71
2023/08/04 03:28:06;;;;;;;8.67;2.80;;;;;;;15.38;100.00;99919.63;4987584;28;20284;-71
2023/08/04 03:30:33;;;;;;;4.10;2.60;;;;;;;15.35;100.00;99930.34;4983470;28;21455;-71
2023/08/04 03:32:59;;;;;;;4.23;2.57;;;;;;;15.29;100.00;99922.44;4984356;28;20231;-70
2023/08/04 03:35:25;;;;;;;4.27;3.13;;;;;;;15.28;100.00;99923.34;4983937;28;20212;-70
2023/08/04 03:37:52;;;;;;;3.77;2.60;;;;;;;15.24;100.00;99926.94;4985704;28;20228;-71
2023/08/04 03:40:18;;;;;;;6.03;2.90;;;;;;;15.16;100.00;99924.34;4987636;28;20211;-71
2023/08/04 03:42:44;;;;;;;3.83;3.00;;;;;;;15.15;100.00;99924.38;4981316;28;20217;-71
2023/08/04 03:45:11;;;;;;;3.63;2.70;;;;;;;15.12;100.00;99937.75;4984211;28;20204;-71
2023/08/04 03:47:37;;;;;;;6.57;2.70;;;;;;;15.12;100.00;99941.28;4971676;28;20201;-71
2023/08/04 03:50:05;;;;;;;5.23;3.03;;;;;;;15.04;100.00;99927.19;4971043;28;20583;-71
2023/08/04 03:55:02;;;;;;;7.07;3.40;;;;;;;15.12;100.00;99935.97;5008986;23;20220;-81
2023/08/04 03:57:28;;;;;;;5.70;3.43;;;;;;;15.09;100.00;99933.34;4987522;28;20654;-77
2023/08/04 03:59:55;;;;;;;5.93;3.63;;;;;;;15.01;100.00;99946.75;4988002;28;20205;-79
2023/08/04 04:02:21;;;;;;;4.97;2.97;;;;;;;15.00;100.00;99946.78;4990863;28;20300;-78
2023/08/04 04:04:48;;;;;;;5.07;3.43;;;;;;;14.95;100.00;99949.50;4972992;28;20303;-79
2023/08/04 04:07:14;;;;;;;5.33;3.50;;;;;;;15.01;100.00;99948.56;4987011;28;20208;-79
2023/08/04 04:09:41;;;;;;;5.07;3.00;;;;;;;14.97;100.00;99958.38;4973481;28;20289;-79
2023/08/04 04:12:07;;;;;;;4.80;3.63;;;;;;;14.97;100.00;99957.50;4990881;28;20239;-79
2023/08/04 04:14:34;;;;;;;8.47;3.90;;;;;;;15.00;100.00;99953.00;4990097;28;20324;-79
2023/08/04 04:17:02;;;;;;;7.10;3.90;;;;;;;15.06;100.00;99949.38;4990162;28;20707;-78
2023/08/04 04:19:28;;;;;;;7.53;4.30;;;;;;;15.07;100.00;99960.94;4991291;28;20208;-79
2023/08/04 04:21:55;;;;;;;7.47;4.60;;;;;;;15.10;100.00;99963.56;4992761;28;20212;-79
2023/08/04 04:24:21;;;;;;;6.07;4.30;;;;;;;15.03;100.00;99958.31;4993248;28;20233;-79
2023/08/04 04:26:48;;;;;;;6.87;3.93;;;;;;;14.99;100.00;99953.03;4994295;28;20207;-79
2023/08/04 04:29:14;;;;;;;8.07;4.60;;;;;;;15.09;100.00;99967.13;4980368;28;20248;-79
2023/08/04 04:31:40;;;;;;;7.57;4.53;;;;;;;15.09;100.00;99965.34;4992542;28;20217;-80
2023/08/04 04:34:07;;;;;;;5.37;4.03;;;;;;;15.05;100.00;99967.16;4992278;28;20225;-80
2023/08/04 04:36:33;;;;;;;5.77;4.00;;;;;;;15.05;100.00;99966.28;4991377;28;20227;-80
2023/08/04 04:39:00;;;;;;;5.53;4.27;;;;;;;15.04;100.00;99973.41;4977274;28;20205;-81
2023/08/04 04:41:28;;;;;;;5.77;3.90;;;;;;;15.03;100.00;99973.41;4988963;28;20553;-79
2023/08/04 04:43:55;;;;;;;7.90;4.10;;;;;;;15.03;100.00;99982.31;4991321;28;20225;-80
2023/08/04 04:46:21;;;;;;;9.03;4.50;;;;;;;15.05;100.00;99974.28;4994433;28;20220;-80
2023/08/04 04:48:48;;;;;;;7.07;4.03;;;;;;;15.03;100.00;99982.31;4988719;28;20217;-80
2023/08/04 04:51:14;;;;;;;5.37;3.97;;;;;;;15.08;100.00;99984.03;4989242;28;20198;-80
2023/08/04 04:53:40;;;;;;;5.93;3.97;;;;;;;15.09;100.00;99985.78;4989249;28;20232;-80
2023/08/04 04:56:07;;;;;;;6.23;4.43;;;;;;;15.11;100.00;99989.31;4990759;28;20207;-81
2023/08/04 04:58:33;;;;;;;6.53;4.33;;;;;;;15.14;100.00;99981.28;4981683;28;20222;-81
2023/08/04 05:01:04;;;;;;;6.43;4.70;;;;;;;15.23;100.00;99989.22;4968571;28;20227;-81
2023/08/04 05:03:31;;;;;;;8.17;4.93;;;;;;;15.25;100.00;99987.41;4988423;28;20765;-81
2023/08/04 05:05:57;;;;;;;6.30;4.73;;;;;;;15.30;100.00;99990.91;4971706;28;20602;-79
2023/08/04 05:08:24;;;;;;;7.40;4.10;;;;;;;15.22;100.00;99991.00;4989249;28;20197;-79
2023/08/04 05:10:51;;;;;;;6.30;4.53;;;;;;;15.24;100.00;99990.97;4985939;28;20583;-79
2023/08/04 05:13:17;;;;;;;7.13;4.70;;;;;;;15.27;100.00;99994.47;4983879;28;20217;-79
2023/08/04 05:15:47;;;;;;;7.53;4.73;;;;;;;15.31;100.00;100000.66;4988768;28;20205;-80
2023/08/04 05:18:15;;;;;;;8.03;4.60;;;;;;;15.30;100.00;99999.78;4993936;28;20213;-79
2023/08/04 05:20:46;;;;;;;7.07;4.73;;;;;;;15.32;100.00;99997.09;4993256;28;20207;-80
2023/08/04 05:23:13;;;;;;;6.63;4.20;;;;;;;15.34;100.00;100003.28;4970911;28;20232;-78
2023/08/04 05:25:40;;;;;;;7.00;4.70;;;;;;;15.32;100.00;100005.97;4971507;28;20712;-76
2023/08/04 05:28:27;;;;;;;8.90;4.53;;;;;;;15.34;100.00;100000.63;4966628;28;20560;-77
2023/08/04 05:31:00;;;;;;;7.40;4.70;;;;;;;15.38;100.00;100012.13;4966644;28;20215;-77
2023/08/04 05:33:28;;;;;;;8.23;4.77;;;;;;;15.40;100.00;100008.56;4979176;28;20259;-77
2023/08/04 05:35:55;;;;;;;7.07;4.63;;;;;;;15.47;100.00;100015.56;4986266;28;20579;-77
2023/08/04 05:38:22;;;;;;;7.97;5.10;;;;;;;15.53;100.00;100010.16;4986478;28;20233;-76
2023/08/04 05:40:49;;;;;;;7.50;4.33;;;;;;;15.61;100.00;100013.66;4983354;28;20206;-76
2023/08/04 05:43:16;;;;;;;8.13;4.57;;;;;;;15.71;100.00;100019.75;4982068;28;20623;-77
2023/08/04 05:45:44;;;;;;;7.57;4.87;;;;;;;15.82;100.00;100025.81;4983340;28;20408;-77
2023/08/04 05:48:11;;;;;;;7.83;4.77;;;;;;;15.88;100.00;100024.84;4986106;28;20208;-76
2023/08/04 05:50:38;;;;;;;7.03;4.73;;;;;;;15.95;100.00;100026.53;4985267;28;20211;-77
2023/08/04 05:53:04;;;;;;;6.23;4.17;;;;;;;16.09;100.00;100023.69;4958972;28;20225;-77
2023/08/04 05:55:31;;;;;;;5.90;4.70;;;;;;;16.17;100.00;100028.00;4968144;28;20205;-77
2023/08/04 05:57:57;;;;;;;6.63;4.37;;;;;;;16.35;100.00;100026.81;4986840;28;20217;-77
2023/08/04 06:00:24;;;;;;;8.17;4.70;;;;;;;16.50;100.00;100031.03;4971916;28;20274;-77
2023/08/04 06:02:51;;;;;;;6.10;4.30;;;;;;;16.66;100.00;100037.91;4987952;28;20687;-77
2023/08/04 06:05:17;;;;;;;7.53;4.77;;;;;;;16.79;100.00;100036.78;4979952;28;20201;-74
2023/08/04 06:07:44;;;;;;;6.33;4.13;;;;;;;16.88;100.00;100038.44;4984765;28;20201;-75
2023/08/04 06:10:10;;;;;;;9.17;4.83;;;;;;;16.92;100.00;100042.81;4983407;28;20307;-75
2023/08/04 06:12:37;;;;;;;7.97;4.50;;;;;;;17.16;100.00;100038.78;4973984;28;20310;-74
2023/08/04 06:15:04;;;;;;;5.03;3.77;;;;;;;17.18;100.00;100045.88;4982130;28;20213;-74
2023/08/04 06:17:32;;;;;;;5.67;4.13;;;;;;;17.24;100.00;100047.59;4981758;28;20708;-75
2023/08/04 06:19:58;;;;;;;6.43;4.70;;;;;;;17.30;100.00;100046.59;4973632;28;20260;-74
2023/08/04 06:22:24;;;;;;;5.53;4.40;;;;;;;17.41;100.00;100050.81;4983303;28;20197;-74
2023/08/04 06:24:51;;;;;;;6.37;4.50;;;;;;;17.54;100.00;100055.00;4980011;28;20217;-74
2023/08/04 06:27:17;;;;;;;5.40;4.07;;;;;;;17.69;100.00;100051.16;4976592;28;20205;-74
2023/08/04 06:29:44;;;;;;;6.23;4.07;;;;;;;17.84;100.00;100056.19;4981977;28;20201;-74
2023/08/04 06:32:10;;;;;;;4.68;4.00;;;;;;;17.91;100.00;100050.69;4975291;28;20419;-73
2023/08/04 06:34:37;;;;;;;6.03;4.73;;;;;;;17.95;100.00;100058.63;4982480;28;20225;-74
2023/08/04 06:37:04;;;;;;;5.30;3.90;;;;;;;18.10;100.00;100060.97;4986153;28;20296;-72
2023/08/04 06:39:30;;;;;;;5.65;4.75;;;;;;;18.23;100.00;100060.69;4985873;28;20205;-72
2023/08/04 06:41:57;;;;;;;5.95;4.45;;;;;;;18.25;100.00;100067.78;4986158;28;20284;-73
2023/08/04 06:44:23;;;;;;;6.75;4.70;;;;;;;18.34;100.00;100072.91;4981636;28;20224;-73
2023/08/04 06:46:50;;;;;;;9.88;5.10;;;;;;;18.30;100.00;100067.66;4983850;28;20215;-73
2023/08/04 06:49:16;;;;;;;5.90;4.75;;;;;;;18.30;100.00;100078.41;4985786;28;20604;-73
2023/08/04 06:51:42;;;;;;;7.57;4.50;;;;;;;18.30;100.00;100075.72;4983046;28;20228;-74
2023/08/04 06:54:09;;;;;;;6.03;4.78;;;;;;;18.34;100.00;100077.41;4985492;28;20228;-72
2023/08/04 06:56:35;;;;;;;8.35;5.25;;;;;;;18.28;100.00;100081.09;4987624;28;20239;-72
2023/08/04 06:59:01;;;;;;;6.80;5.32;;;;;;;18.31;100.00;100083.72;4980865;28;20717;-72
2023/08/04 07:01:28;;;;;;;6.25;4.90;;;;;;;18.17;100.00;100080.47;4971687;28;20203;-72
2023/08/04 07:03:54;;;;;;;6.15;4.80;;;;;;;18.23;100.00;100088.38;4986068;28;20224;-73
2023/08/04 07:06:21;;;;;;;5.72;4.90;;;;;;;18.34;100.00;100090.81;4989465;28;20260;-72
2023/08/04 07:08:47;;;;;;;7.88;5.53;;;;;;;18.45;100.00;100084.31;4989690;28;20193;-73
2023/08/04 07:11:18;;;;;;;8.18;5.78;;;;;;;18.60;100.00;100090.22;4973627;28;20204;-73
2023/08/04 07:13:45;;;;;;;7.72;5.70;;;;;;;18.70;100.00;100089.97;4990128;28;20303;-73
2023/08/04 07:16:12;;;;;;;10.48;6.30;;;;;;;18.88;100.00;100095.81;4984755;28;20217;-73
2023/08/04 07:18:39;;;;;;;10.70;7.47;;;;;;;18.88;100.00;100095.81;4987370;28;20225;-73
2023/08/04 07:21:06;;;;;;;11.23;7.22;;;;;;;18.48;100.00;100094.94;4982952;28;20284;-72
2023/08/04 07:23:33;;;;;;;11.27;7.65;;;;;;;18.54;100.00;100096.59;4991512;28;20224;-72
2023/08/04 07:25:59;;;;;;;8.55;6.85;;;;;;;18.55;100.00;100108.22;4987524;28;20205;-72
2023/08/04 07:28:26;;;;;;;14.32;8.27;;;;;;;18.68;100.00;100101.66;4971701;28;20207;-72
2023/08/04 07:30:52;;;;;;;9.45;7.43;;;;;;;18.82;100.00;100101.34;4987135;28;20478;-72
2023/08/04 07:33:19;;;;;;;11.55;7.28;;;;;;;18.84;100.00;100108.44;4967435;28;20224;-72
2023/08/04 07:35:54;;;;;;;12.02;7.78;;;;;;;18.83;100.00;100109.34;4972500;28;20211;-72
2023/08/04 07:38:21;;;;;;;11.35;7.63;;;;;;;18.72;100.00;100104.22;4987620;28;20220;-72
2023/08/04 07:40:47;;;;;;;11.60;7.40;;;;;;;18.67;100.00;100110.63;4989790;28;20572;-72
2023/08/04 07:43:14;;;;;;;10.97;7.83;;;;;;;18.73;100.00;100110.47;4990132;28;20225;-72
2023/08/04 07:45:41;;;;;;;13.07;8.03;;;;;;;18.64;100.00;100111.59;4990321;28;20231;-72
2023/08/04 07:48:07;;;;;;;12.20;7.67;;;;;;;18.67;100.00;100113.31;4988258;28;20342;-72
2023/08/04 07:50:44;;;;;;;11.43;7.60;;;;;;;18.79;100.00;100113.88;4966483;28;20212;-72
2023/08/04 07:53:10;;;;;;;10.60;7.67;;;;;;;18.77;100.00;100118.41;4973971;28;20516;-72
2023/08/04 07:55:37;;;;;;;10.10;7.10;;;;;;;18.92;100.00;100118.97;4982253;28;20205;-72
2023/08/04 07:58:03;;;;;;;12.30;7.40;;;;;;;18.86;100.00;100114.63;4983721;28;20247;-72
2023/08/04 08:00:30;;;;;;;9.93;6.93;;;;;;;18.82;100.00;100121.00;4990720;28;20654;-73
2023/08/04 08:02:56;;;;;;;11.03;7.13;;;;;;;18.89;100.00;100121.72;4990876;28;20213;-72
2023/08/04 08:05:23;;;;;;;9.83;6.83;;;;;;;18.93;100.00;100126.09;4972490;28;20201;-72
2023/08/04 08:07:49;;;;;;;9.85;6.88;;;;;;;19.12;100.00;100126.50;4979173;28;20193;-72
2023/08/04 08:10:16;;;;;;;10.35;6.72;;;;;;;19.20;100.00;100128.06;4980579;28;20232;-72
2023/08/04 08:12:43;;;;;;;10.95;6.57;;;;;;;19.37;100.00;100128.50;4973842;28;20288;-72
2023/08/04 08:15:11;;;;;;;8.32;6.35;;;;;;;19.57;100.00;100128.00;4976703;28;20197;-73
2023/08/04 08:17:38;;;;;;;10.60;6.45;;;;;;;19.83;100.00;100132.66;4969960;28;20225;-73
2023/08/04 08:20:06;;;;;;;9.55;5.95;;;;;;;19.89;100.00;100129.78;4973214;28;20288;-72
2023/08/04 08:22:32;;;;;;;8.75;6.20;;;;;;;19.65;100.00;100135.88;4977031;28;20606;-72
2023/08/04 08:24:59;;;;;;;10.50;5.88;;;;;;;19.62;100.00;100133.28;4988302;28;20217;-72
2023/08/04 08:27:25;;;;;;;10.32;6.63;;;;;;;19.89;100.00;100140.53;4983380;28;20701;-73
2023/08/04 08:29:54;;;;;;;6.93;5.70;;;;;;;19.97;100.00;100137.63;4987518;28;20201;-75
2023/08/04 08:32:21;;;;;;;13.40;6.93;;;;;;;20.20;100.00;100145.91;4987932;28;20685;-75
2023/08/04 08:34:49;;;;;;;10.65;6.32;;;;;;;20.27;100.00;100143.91;4989178;28;20794;-73
2023/08/04 08:37:15;;;;;;;11.07;6.15;;;;;;;20.11;100.00;100146.19;4989270;28;20209;-72
2023/08/04 08:39:42;;;;;;;11.20;5.97;;;;;;;20.00;100.00;100138.41;4989230;28;20720;-74
2023/08/04 08:42:08;;;;;;;11.75;7.00;;;;;;;19.83;100.00;100151.47;4971835;28;20211;-74
2023/08/04 08:44:34;;;;;;;10.73;7.35;;;;;;;19.10;100.00;100165.00;4966495;28;20276;-73
2023/08/04 08:47:02;;;;;;;12.55;6.72;;;;;;;18.51;100.00;100155.69;4990061;28;20201;-74
2023/08/04 08:49:37;;;;;;;11.97;7.50;;;;;;;18.37;100.00;100157.75;4990215;28;20208;-74
2023/08/04 08:52:08;;;;;;;11.83;7.70;;;;;;;18.36;100.00;100159.56;4981060;28;20212;-73
2023/08/04 08:54:35;;;;;;;13.73;7.80;;;;;;;18.32;100.00;100167.72;4987985;28;20619;-74
2023/08/04 08:57:04;;;;;;;10.53;7.73;;;;;;;18.23;100.00;100175.97;4990749;28;20300;-74
2023/08/04 08:59:32;;;;;;;10.97;7.40;;;;;;;18.40;100.00;100161.25;4988398;28;20216;-74
2023/08/04 09:02:01;;;;;;;14.70;8.07;;;;;;;18.47;100.00;100165.59;4985047;28;20585;-74
2023/08/04 09:04:32;;;;;;;11.03;7.60;;;;;;;18.64;100.00;100170.59;4980854;28;20252;-74
2023/08/04 09:06:59;;;;;;;11.97;7.63;;;;;;;18.92;100.00;100170.84;4987052;28;20592;-74
2023/08/04 09:09:25;;;;;;;13.27;7.87;;;;;;;18.89;100.00;100168.22;4990185;28;20197;-75
2023/08/04 09:11:54;;;;;;;12.60;8.40;;;;;;;19.05;100.00;100174.09;4970749;28;20335;-75
2023/08/04 09:14:20;;;;;;;14.53;8.83;;;;;;;19.17;100.00;100171.09;4972652;28;20224;-74
2023/08/04 09:16:47;;;;;;;10.80;8.10;;;;;;;19.47;100.00;100173.94;4975295;28;20211;-74
2023/08/04 09:19:14;;;;;;;12.38;7.88;;;;;;;19.54;100.00;100173.75;4987352;28;20259;-75
2023/08/04 09:21:41;;;;;;;12.55;8.18;;;;;;;19.94;100.00;100172.66;4981554;28;20201;-75
2023/08/04 09:24:12;;;;;;;12.95;7.70;;;;;;;20.26;100.00;100177.09;4983272;28;20228;-75
2023/08/04 09:26:44;;;;;;;14.07;7.35;;;;;;;20.19;100.00;100179.09;4984755;28;20676;-75
2023/08/04 09:29:13;;;;;;;12.23;7.32;;;;;;;20.54;100.00;100180.78;4982923;28;20197;-75
2023/08/04 09:31:41;;;;;;;10.82;7.25;;;;;;;20.59;100.00;100181.50;4985767;28;20205;-75
2023/08/04 09:34:11;;;;;;;12.27;7.25;;;;;;;20.53;100.00;100179.00;4981061;28;20225;-75
2023/08/04 09:36:42;;;;;;;10.43;6.43;;;;;;;20.71;100.00;100180.22;4986404;28;20219;-75
2023/08/04 09:39:12;;;;;;;9.90;6.15;;;;;;;20.58;100.00;100176.19;4986868;28;20221;-75
2023/08/04 09:41:42;;;;;;;11.70;5.35;;;;;;;20.27;100.00;100177.06;4979496;28;20201;-75
2023/08/04 09:44:10;;;;;;;9.35;6.22;;;;;;;20.07;100.00;100183.97;4987751;28;20243;-75
2023/08/04 09:46:50;;;;;;;9.88;5.95;;;;;;;20.14;100.00;100180.16;4970382;28;20283;-75
2023/08/04 09:49:18;;;;;;;9.63;5.63;;;;;;;20.31;100.00;100184.09;4985071;28;20439;-76
2023/08/04 09:51:45;;;;;;;7.82;5.20;;;;;;;20.57;100.00;100177.97;4986055;28;20635;-76
2023/08/04 11:30:12;;;;;;;6.70;3.35;;;;;;;23.22;62.32;100189.13;4960888;28;20265;-70
2023/08/04 11:32:38;;;;;;;5.88;3.50;;;;;;;22.31;66.17;100193.59;4966111;28;20701;-69
2023/08/04 11:35:05;;;;;;;4.95;3.47;;;;;;;22.43;65.15;100194.97;4985032;28;20280;-69
2023/08/04 11:37:32;;;;;;;5.10;3.17;;;;;;;22.59;63.95;100197.94;4992299;28;20358;-69
2023/08/04 11:39:58;;;;;;;5.82;3.58;;;;;;;22.81;65.20;100189.00;4990157;28;20224;-68
2023/08/04 11:42:25;;;;;;;4.93;2.65;;;;;;;22.94;63.16;100189.38;4980468;28;20206;-69
2023/08/04 11:44:52;;;;;;;4.30;2.30;;;;;;;23.00;61.93;100196.34;4977512;28;20236;-69
2023/08/04 11:47:19;;;;;;;5.57;2.50;;;;;;;22.93;61.58;100200.22;4985614;28;20673;-69
2023/08/04 11:49:45;;;;;;;5.57;2.88;;;;;;;22.80;61.86;100205.19;4984760;28;20198;-70
2023/08/04 11:52:14;;;;;;;6.70;3.00;;;;;;;22.84;61.46;100206.88;4983294;28;20685;-69
2023/08/04 11:54:56;;;;;;;3.80;2.70;;;;;;;23.50;60.53;100196.91;4978891;28;20237;-69
2023/08/04 11:57:23;;;;;;;4.35;3.00;;;;;;;24.20;60.42;100206.50;4983990;28;20681;-69
2023/08/04 11:59:51;;;;;;;6.10;2.97;;;;;;;24.63;58.24;100210.81;4979056;28;20748;-67
2023/08/04 12:02:18;;;;;;;3.30;2.58;;;;;;;24.82;55.80;100202.72;4989442;28;20207;-69
2023/08/04 12:04:45;;;;;;;4.18;3.03;;;;;;;24.30;57.17;100210.56;4985645;28;20225;-69
2023/08/04 12:07:12;;;;;;;3.15;2.58;;;;;;;23.96;57.19;100197.63;4963678;28;20217;-69
2023/08/04 12:09:38;;;;;;;3.35;2.65;;;;;;;24.43;54.46;100203.66;4965968;28;20288;-69
2023/08/04 12:12:06;;;;;;;5.03;2.90;;;;;;;23.97;56.16;100202.97;4980897;28;20233;-70
2023/08/04 12:14:34;;;;;;;4.80;2.97;;;;;;;23.71;56.60;100204.16;4986055;28;20232;-69
2023/08/04 12:17:35;;;;;;;5.45;3.17;;;;;;;23.90;56.69;100206.03;4975281;28;20205;-69
2023/08/04 12:20:01;;;;;;;3.40;2.78;;;;;;;24.09;55.72;100207.00;4986295;28;20638;-69
2023/08/04 12:22:28;;;;;;;5.53;2.90;;;;;;;24.81;55.61;100193.69;4986947;28;20213;-70
2023/08/04 12:24:55;;;;;;;4.13;2.50;;;;;;;24.79;52.12;100203.72;4982495;28;20222;-69
2023/08/04 12:27:21;;;;;;;4.07;2.53;;;;;;;24.59;52.13;100198.38;4983429;28;20296;-69
2023/08/04 12:29:48;;;;;;;3.20;2.20;;;;;;;24.72;53.39;100195.97;4983715;28;20200;-69
2023/08/04 12:32:14;;;;;;;7.20;2.50;;;;;;;24.44;52.57;100186.47;4980118;28;20253;-69
2023/08/04 12:34:40;;;;;;;3.55;2.83;;;;;;;24.27;53.36;100191.72;4966827;28;20272;-70
2023/08/04 12:37:07;;;;;;;3.70;2.83;;;;;;;23.72;56.59;100210.44;4965254;28;20988;-69
2023/08/04 12:39:33;;;;;;;4.90;3.30;;;;;;;23.16;59.58;100183.06;4986967;28;20660;-68
2023/08/04 12:42:00;;;;;;;4.95;3.25;;;;;;;23.07;60.71;100193.31;4983588;28;20233;-70
2023/08/04 12:44:26;;;;;;;6.10;3.67;;;;;;;22.93;60.18;100206.50;4985405;28;20235;-68
2023/08/04 12:46:53;;;;;;;6.60;3.55;;;;;;;23.03;59.53;100199.78;4989340;28;20204;-68
2023/08/04 12:49:19;;;;;;;4.47;3.25;;;;;;;22.81;59.69;100198.88;4983897;28;20202;-69
2023/08/04 12:51:46;;;;;;;5.43;3.67;;;;;;;22.86;60.18;100191.50;4981419;28;20201;-69
2023/08/04 12:54:12;;;;;;;6.63;3.35;;;;;;;23.29;59.62;100187.91;4986772;28;20304;-70
2023/08/04 12:56:39;;;;;;;5.57;2.90;;;;;;;23.51;55.66;100190.56;4987548;28;20281;-67
2023/08/04 12:59:05;;;;;;;5.40;3.38;;;;;;;23.66;53.53;100184.53;4985456;28;20245;-69